West End, Texas
Current Conditions -  °F | °C
As of 11:55 AM on Saturday 20 Dec 2014 (Local Time) from KARM Reporting Station
Overcast Overcast  
Wind Chill: 12°   Ceiling: 1000
Heat Index: 12°   Visibility: 10mi
Dew Point: 10°   Wind: 7mph
Humidity: 89%   Direction: 30°NNE
Pressure: 30.2"   Gusts: NA
Location:  29.1916°N, 96.2212°W
Report Text: KARM 201755Z AUTO 03006KT 10SM OVC010 12/10 A3020 RMK AO2 T01170099 10117 20102
Loading
Personal Weather Stations






























Interactive Weather Map New forecast layout! Learn more

10-Day Weather Forecast

Advertisements
Track Severe Weather on mobile